Airport View

Enter AWOS ICAO identifier for current METAR.

ex. KFNL

KCMY 220010Z AUTO 19007G15KT 10SM OVC018 22/20 A2986 RMK AO2 T02200195

22 Sep 2019 00:13

Frequency: 119.775

Phone: 608-269-0724

Other Area AWOS: KBCK - KVOK - KLSE - KY51

TAF AMD KVOK 201940Z 2019/2123 13006KT 9999 FEW015 SCT050 BKN210 QNH3003INS BECMG 2108/2109 17009KT 8000 BR BKN010 OVC025 QNH2994INS TEMPO 2109/2115 4800 BR BKN007 OVC015 BECMG 2114/2116 18012G18KT 9999 NSW SCT015 BKN030 QNH2982INS BECMG 2120/2121 19012KT 9000 TSRA BKN020CB OVC030 QNH2981INS TX28/2020Z TN19/2110Z LAST NO AMDS AFT 2021 NEXT 2309